Time;durP1;ratioP1;P1;durP2;ratioP2;P2;SDS_P1;SDS_P2;PMS_P1;PMS_P2;Temp;Humidity;BMP_temperature;BMP_pressure;BME280_temperature;BME280_humidity;BME280_pressure;Samples;Min_cycle;Max_cycle;Signal;HPM_P1;HPM_P2
2023/09/26 00:02:13;;;;;;;7.32;5.35;;;10.80;99.90;;;;;;4875933;29;20053;-68
2023/09/26 00:04:45;;;;;;;5.30;4.80;;;10.80;99.90;;;;;;4866953;29;20518;-68
2023/09/26 00:07:19;;;;;;;5.65;5.15;;;10.80;99.90;;;;;;4888718;29;20545;-68
2023/09/26 00:09:50;;;;;;;5.25;4.65;;;10.80;99.90;;;;;;4873447;29;20056;-68
2023/09/26 00:12:22;;;;;;;5.72;4.20;;;10.70;99.90;;;;;;4872290;29;20043;-69
2023/09/26 00:14:49;;;;;;;4.80;4.35;;;10.70;99.90;;;;;;4887714;29;20045;-68
2023/09/26 00:17:22;;;;;;;5.22;4.35;;;10.70;99.90;;;;;;4888389;29;20514;-68
2023/09/26 00:19:54;;;;;;;5.45;4.95;;;10.70;99.90;;;;;;4876872;29;20044;-68
2023/09/26 00:22:26;;;;;;;5.55;4.95;;;10.60;99.90;;;;;;4879048;29;20049;-68
2023/09/26 00:24:57;;;;;;;5.15;4.65;;;10.60;99.90;;;;;;4872711;29;20064;-69
2023/09/26 00:27:29;;;;;;;6.53;5.20;;;10.60;99.90;;;;;;4887375;29;20124;-69
2023/09/26 00:30:01;;;;;;;5.32;4.32;;;10.60;99.90;;;;;;4882181;29;20044;-68
2023/09/26 00:32:33;;;;;;;5.57;4.88;;;10.50;99.90;;;;;;4880034;29;20036;-68
2023/09/26 00:35:08;;;;;;;6.35;5.47;;;10.50;99.90;;;;;;4872641;29;20040;-68
2023/09/26 00:37:48;;;;;;;6.57;5.07;;;10.50;99.90;;;;;;4868306;29;20055;-68
2023/09/26 00:40:21;;;;;;;6.68;5.68;;;10.40;99.90;;;;;;4858289;29;20060;-68
2023/09/26 00:42:53;;;;;;;7.40;5.70;;;10.50;99.90;;;;;;4879189;29;20055;-68
2023/09/26 00:45:25;;;;;;;6.40;5.22;;;10.50;99.90;;;;;;4890016;29;20135;-69
2023/09/26 00:47:59;;;;;;;11.87;5.73;;;10.40;99.90;;;;;;4875223;29;20076;-69
2023/09/26 00:50:31;;;;;;;13.57;5.53;;;10.40;99.90;;;;;;4873820;29;20328;-68
2023/09/26 00:53:04;;;;;;;7.57;5.27;;;10.30;99.90;;;;;;4880595;29;20045;-70
2023/09/26 00:55:31;;;;;;;6.40;5.10;;;10.30;99.90;;;;;;4891838;29;20364;-68
2023/09/26 00:58:03;;;;;;;7.15;5.15;;;10.30;99.90;;;;;;4876828;29;20049;-68
2023/09/26 01:00:37;;;;;;;5.50;5.00;;;10.30;99.90;;;;;;4886658;29;20436;-69
2023/09/26 01:03:04;;;;;;;9.75;5.28;;;10.30;99.90;;;;;;4882280;29;20124;-68
2023/09/26 01:05:32;;;;;;;6.82;4.70;;;10.30;99.90;;;;;;4881738;29;20041;-68
2023/09/26 01:07:59;;;;;;;5.28;4.78;;;10.30;99.90;;;;;;4869163;29;20490;-67
2023/09/26 01:10:31;;;;;;;8.45;5.40;;;10.20;99.90;;;;;;4887313;29;20541;-68
2023/09/26 01:12:59;;;;;;;6.75;5.18;;;10.10;99.90;;;;;;4883852;29;20041;-69
2023/09/26 01:15:31;;;;;;;9.98;4.95;;;10.10;99.90;;;;;;4877400;29;20052;-68
2023/09/26 01:18:07;;;;;;;5.03;4.53;;;10.10;99.90;;;;;;4872990;29;20134;-69
2023/09/26 01:20:43;;;;;;;8.43;5.28;;;10.10;99.90;;;;;;4880754;29;20135;-69
2023/09/26 01:23:18;;;;;;;4.93;4.43;;;10.10;99.90;;;;;;4879554;29;20143;-69
2023/09/26 01:25:45;;;;;;;7.25;4.35;;;10.00;99.90;;;;;;4890616;29;20060;-69
2023/09/26 01:28:17;;;;;;;5.60;4.50;;;10.10;99.90;;;;;;4870933;29;20048;-69
2023/09/26 01:30:49;;;;;;;5.90;4.55;;;10.00;99.90;;;;;;4877736;29;20041;-68
2023/09/26 01:33:21;;;;;;;6.35;4.32;;;9.90;99.90;;;;;;4863546;29;20049;-69
2023/09/26 01:35:53;;;;;;;7.93;4.85;;;9.90;99.90;;;;;;4871453;29;20068;-68
2023/09/26 01:38:26;;;;;;;5.82;4.53;;;9.90;99.90;;;;;;4869524;29;20044;-69
2023/09/26 01:40:57;;;;;;;5.32;4.78;;;9.90;99.90;;;;;;4878508;29;20140;-68
2023/09/26 01:43:31;;;;;;;6.03;4.75;;;9.90;99.90;;;;;;4870732;29;20056;-68
2023/09/26 01:46:04;;;;;;;5.32;4.70;;;9.90;99.90;;;;;;4885573;29;20105;-68
2023/09/26 01:48:32;;;;;;;5.63;4.93;;;9.90;99.90;;;;;;4891010;29;20131;-69
2023/09/26 01:51:05;;;;;;;6.93;5.45;;;9.90;99.90;;;;;;4891319;29;20063;-68
2023/09/26 01:53:37;;;;;;;6.82;5.47;;;9.90;99.90;;;;;;4873717;29;20045;-68
2023/09/26 01:56:04;;;;;;;6.18;5.38;;;9.90;99.90;;;;;;4877585;29;20685;-68
2023/09/26 01:58:36;;;;;;;6.28;5.63;;;9.80;99.90;;;;;;4864437;29;20096;-68
2023/09/26 02:01:08;;;;;;;5.72;4.95;;;9.80;99.90;;;;;;4867582;29;20479;-68
2023/09/26 02:03:36;;;;;;;6.32;5.72;;;9.80;99.90;;;;;;4885224;29;20166;-68
2023/09/26 02:06:08;;;;;;;5.97;5.38;;;9.70;99.90;;;;;;4870274;29;20510;-68
2023/09/26 02:08:35;;;;;;;7.57;5.55;;;9.70;99.90;;;;;;4887731;29;20064;-70
2023/09/26 02:11:06;;;;;;;6.25;5.25;;;9.70;99.90;;;;;;4877476;29;20063;-68
2023/09/26 02:13:38;;;;;;;3.90;3.60;;;9.60;99.90;;;;;;4877428;29;20477;-68
2023/09/26 02:16:11;;;;;;;3.83;2.40;;;9.60;99.90;;;;;;4876116;29;20060;-68
2023/09/26 02:18:44;;;;;;;3.40;2.50;;;9.60;99.90;;;;;;4890107;29;20037;-70
2023/09/26 02:21:16;;;;;;;3.00;2.50;;;9.50;99.90;;;;;;4887100;29;20056;-69
2023/09/26 02:23:48;;;;;;;3.72;2.92;;;9.40;99.90;;;;;;4871237;29;20052;-69
2023/09/26 02:26:21;;;;;;;4.85;3.83;;;9.40;99.90;;;;;;4875643;29;20049;-68
2023/09/26 02:28:53;;;;;;;5.10;4.60;;;9.40;99.90;;;;;;4852246;29;20055;-68
2023/09/26 02:31:25;;;;;;;4.72;4.32;;;9.40;99.90;;;;;;4862625;29;20414;-69
2023/09/26 02:33:57;;;;;;;4.50;4.10;;;9.40;99.90;;;;;;4893965;29;20143;-69
2023/09/26 02:36:24;;;;;;;4.30;3.85;;;9.40;99.90;;;;;;4882582;29;20052;-68
2023/09/26 02:38:56;;;;;;;4.07;3.67;;;9.40;99.90;;;;;;4876735;29;20049;-68
2023/09/26 02:41:28;;;;;;;3.67;3.30;;;9.40;99.90;;;;;;4864422;29;20517;-70
2023/09/26 02:44:03;;;;;;;4.20;3.50;;;9.30;99.90;;;;;;4874509;29;20072;-69
2023/09/26 02:46:34;;;;;;;3.40;3.00;;;9.30;99.90;;;;;;4886382;29;20053;-69
2023/09/26 02:49:06;;;;;;;3.15;2.85;;;9.20;99.90;;;;;;4872801;29;20108;-68
2023/09/26 02:51:38;;;;;;;3.25;2.92;;;9.20;99.90;;;;;;4862964;29;20129;-68
2023/09/26 02:54:10;;;;;;;3.10;2.80;;;9.10;99.90;;;;;;4870401;29;20057;-68
2023/09/26 02:56:42;;;;;;;3.17;2.90;;;9.10;99.90;;;;;;4887250;29;20057;-68
2023/09/26 02:59:14;;;;;;;3.10;2.80;;;9.00;99.90;;;;;;4882031;29;20056;-69
2023/09/26 03:01:46;;;;;;;3.92;3.30;;;9.00;99.90;;;;;;4870484;29;20550;-68
2023/09/26 03:04:18;;;;;;;4.20;3.65;;;8.90;99.90;;;;;;4863540;29;20056;-68
2023/09/26 03:06:45;;;;;;;3.80;3.22;;;8.90;99.90;;;;;;4879476;29;20037;-68
2023/09/26 03:09:17;;;;;;;3.92;3.42;;;8.90;99.90;;;;;;4877949;29;20059;-68
2023/09/26 03:11:49;;;;;;;3.30;3.00;;;8.90;99.90;;;;;;4871672;29;20067;-68
2023/09/26 03:14:21;;;;;;;3.95;3.55;;;8.90;99.90;;;;;;4886785;29;20565;-69
2023/09/26 03:16:53;;;;;;;4.07;3.35;;;8.90;99.90;;;;;;4891588;29;20047;-69
2023/09/26 03:19:24;;;;;;;3.85;3.40;;;8.90;99.90;;;;;;4871020;29;20045;-68
2023/09/26 03:21:57;;;;;;;6.45;3.58;;;8.90;99.90;;;;;;4869324;29;20143;-68
2023/09/26 03:24:23;;;;;;;4.75;3.90;;;8.90;99.90;;;;;;4869479;29;20048;-68
2023/09/26 03:26:55;;;;;;;5.63;3.33;;;9.00;99.90;;;;;;4869169;29;20518;-68
2023/09/26 03:29:27;;;;;;;5.65;3.95;;;8.90;99.90;;;;;;4879019;29;20409;-68
2023/09/26 03:31:59;;;;;;;9.43;3.67;;;8.90;99.90;;;;;;4890823;29;20390;-68
2023/09/26 03:34:26;;;;;;;6.65;3.95;;;8.90;99.90;;;;;;4881438;29;20395;-68
2023/09/26 03:36:58;;;;;;;3.53;3.22;;;8.90;99.90;;;;;;4860732;29;20041;-68
2023/09/26 03:39:30;;;;;;;4.07;3.33;;;8.90;99.90;;;;;;4863638;29;20063;-69
2023/09/26 03:41:57;;;;;;;3.60;3.30;;;8.90;99.90;;;;;;4887663;29;20065;-68
2023/09/26 03:44:29;;;;;;;3.28;2.97;;;8.90;99.90;;;;;;4878374;29;20135;-69
2023/09/26 03:47:01;;;;;;;6.25;3.40;;;8.80;99.90;;;;;;4862041;29;20064;-68
2023/09/26 03:49:33;;;;;;;3.92;3.53;;;8.80;99.90;;;;;;4882255;29;20124;-68
2023/09/26 03:51:59;;;;;;;3.25;3.03;;;8.70;99.90;;;;;;4876119;29;20049;-68
2023/09/26 03:54:31;;;;;;;3.88;3.40;;;8.70;99.90;;;;;;4889665;29;20041;-68
2023/09/26 03:56:58;;;;;;;4.25;3.83;;;8.70;99.90;;;;;;4877713;29;20043;-68
2023/09/26 03:59:30;;;;;;;4.05;3.67;;;8.70;99.90;;;;;;4888359;29;20693;-68
2023/09/26 04:02:02;;;;;;;3.78;3.22;;;8.60;99.90;;;;;;4875212;29;20043;-68
2023/09/26 04:04:34;;;;;;;3.60;3.25;;;8.60;99.90;;;;;;4872860;29;20037;-68
2023/09/26 04:07:06;;;;;;;4.40;3.75;;;8.60;99.90;;;;;;4858926;29;20120;-69
2023/09/26 04:09:38;;;;;;;3.80;3.42;;;8.60;99.90;;;;;;4881587;29;20049;-67
2023/09/26 04:12:10;;;;;;;4.65;3.25;;;8.60;99.90;;;;;;4894734;29;20033;-68
2023/09/26 04:14:42;;;;;;;3.55;3.25;;;8.70;99.90;;;;;;4887258;29;20120;-67
2023/09/26 04:17:14;;;;;;;5.18;3.67;;;8.70;99.90;;;;;;4865967;29;20040;-68
2023/09/26 04:19:45;;;;;;;4.50;3.65;;;8.70;99.90;;;;;;4874088;29;20040;-67
2023/09/26 04:22:17;;;;;;;12.30;5.75;;;8.60;99.90;;;;;;4875560;29;20036;-69
2023/09/26 04:24:49;;;;;;;6.32;4.60;;;8.50;99.90;;;;;;4892279;29;20386;-68
2023/09/26 04:27:21;;;;;;;8.05;4.68;;;8.50;99.90;;;;;;4883975;29;20040;-69
2023/09/26 04:29:53;;;;;;;10.25;5.13;;;8.40;99.90;;;;;;4886920;29;20143;-68
2023/09/26 04:32:20;;;;;;;8.57;4.93;;;8.40;99.90;;;;;;4881979;29;20057;-69
2023/09/26 04:34:53;;;;;;;7.50;5.57;;;8.40;99.90;;;;;;4886645;29;20048;-69
2023/09/26 04:37:25;;;;;;;7.25;5.43;;;8.30;99.90;;;;;;4900078;29;20048;-68
2023/09/26 04:39:57;;;;;;;6.88;5.50;;;8.30;99.90;;;;;;4875800;29;20131;-68
2023/09/26 04:42:23;;;;;;;12.02;5.50;;;8.30;99.90;;;;;;4902042;29;20136;-70
2023/09/26 04:44:55;;;;;;;7.90;5.25;;;8.20;99.90;;;;;;4885463;29;20063;-69
2023/09/26 04:47:27;;;;;;;12.93;5.97;;;8.20;99.90;;;;;;4895020;29;20041;-68
2023/09/26 04:49:59;;;;;;;8.18;6.03;;;8.20;99.90;;;;;;4892066;29;20037;-68
2023/09/26 04:52:32;;;;;;;11.35;5.78;;;8.20;99.90;;;;;;4877137;29;20055;-68
2023/09/26 04:54:59;;;;;;;17.15;6.45;;;8.30;99.90;;;;;;4886498;29;20120;-68
2023/09/26 04:57:25;;;;;;;8.32;6.05;;;8.40;99.90;;;;;;4873633;29;20072;-68
2023/09/26 04:59:52;;;;;;;6.93;5.70;;;8.40;99.90;;;;;;4890990;29;20045;-68
2023/09/26 05:02:24;;;;;;;7.30;5.63;;;8.50;99.90;;;;;;4890706;29;20044;-68
2023/09/26 05:04:51;;;;;;;8.02;5.65;;;8.50;99.90;;;;;;4885384;29;20144;-68
2023/09/26 05:07:18;;;;;;;8.60;5.57;;;8.50;99.90;;;;;;4877377;29;20048;-68
2023/09/26 05:09:50;;;;;;;7.18;5.97;;;8.50;99.90;;;;;;4882032;29;20052;-69
2023/09/26 05:12:17;;;;;;;7.15;5.80;;;8.50;99.90;;;;;;4864154;29;20136;-69
2023/09/26 05:14:44;;;;;;;10.52;5.65;;;8.50;99.90;;;;;;4880518;29;20041;-69
2023/09/26 05:17:11;;;;;;;9.68;5.82;;;8.50;99.90;;;;;;4883770;29;20049;-68
2023/09/26 05:19:43;;;;;;;10.13;5.95;;;8.50;99.90;;;;;;4886183;29;20044;-68
2023/09/26 05:22:14;;;;;;;12.48;6.65;;;8.50;99.90;;;;;;4880652;29;20068;-68
2023/09/26 05:24:41;;;;;;;10.48;6.28;;;8.50;99.90;;;;;;4891445;29;20131;-68
2023/09/26 05:27:13;;;;;;;13.25;7.35;;;8.60;99.90;;;;;;4874491;29;20045;-68
2023/09/26 05:29:45;;;;;;;13.60;6.68;;;8.60;99.90;;;;;;4889811;29;20508;-68
2023/09/26 05:32:17;;;;;;;13.77;6.45;;;8.60;99.90;;;;;;4890016;29;20501;-68
2023/09/26 05:34:44;;;;;;;13.18;7.55;;;8.60;99.90;;;;;;4871122;29;20165;-68
2023/09/26 05:37:16;;;;;;;11.35;7.05;;;8.70;99.90;;;;;;4877881;29;20060;-68
2023/09/26 05:39:48;;;;;;;12.68;6.93;;;8.70;99.90;;;;;;4887243;29;20053;-68
2023/09/26 05:42:15;;;;;;;11.75;7.47;;;8.70;99.90;;;;;;4881971;29;20045;-68
2023/09/26 05:44:47;;;;;;;11.20;7.00;;;8.70;99.90;;;;;;4861376;29;20072;-68
2023/09/26 05:47:14;;;;;;;12.82;7.50;;;8.70;99.90;;;;;;4876156;29;20051;-68
2023/09/26 05:49:49;;;;;;;13.77;7.68;;;8.70;99.90;;;;;;4888092;29;20068;-68
2023/09/26 05:52:22;;;;;;;15.85;8.00;;;8.70;99.90;;;;;;4863117;29;20072;-68
2023/09/26 05:54:54;;;;;;;11.57;8.32;;;8.70;99.90;;;;;;4875740;29;20041;-68
2023/09/26 05:57:27;;;;;;;16.83;7.80;;;8.80;99.90;;;;;;4886024;29;20059;-66
2023/09/26 05:59:59;;;;;;;20.05;9.20;;;8.80;99.90;;;;;;4887547;29;20063;-67
2023/09/26 06:02:36;;;;;;;24.90;9.23;;;8.90;99.90;;;;;;4888062;29;20045;-67
2023/09/26 06:05:08;;;;;;;21.63;8.57;;;8.90;99.90;;;;;;4888543;29;20037;-68
2023/09/26 06:07:41;;;;;;;23.23;8.68;;;8.90;99.90;;;;;;4871910;29;20577;-68
2023/09/26 06:10:14;;;;;;;20.33;10.98;;;9.00;99.90;;;;;;4874400;29;20044;-67
2023/09/26 06:12:46;;;;;;;14.85;7.35;;;8.90;99.90;;;;;;4889827;29;20148;-68
2023/09/26 06:15:12;;;;;;;16.23;6.93;;;8.90;99.90;;;;;;4884645;29;20040;-68
2023/09/26 06:17:44;;;;;;;16.60;8.38;;;8.90;99.90;;;;;;4883003;29;20508;-68
2023/09/26 06:20:12;;;;;;;32.80;8.23;;;8.90;99.90;;;;;;4886422;29;20041;-67
2023/09/26 06:22:43;;;;;;;20.13;7.63;;;8.90;99.90;;;;;;4875467;29;20532;-68
2023/09/26 06:25:15;;;;;;;22.13;8.40;;;8.80;99.90;;;;;;4887845;29;20037;-67
2023/09/26 06:27:47;;;;;;;9.65;7.22;;;8.90;99.90;;;;;;4890423;29;20051;-67
2023/09/26 06:30:19;;;;;;;26.23;8.13;;;8.90;99.90;;;;;;4891037;29;20045;-67
2023/09/26 06:32:52;;;;;;;16.73;7.70;;;8.90;99.90;;;;;;4890265;29;20454;-68
2023/09/26 06:35:19;;;;;;;16.77;8.55;;;8.80;99.90;;;;;;4893342;29;20430;-68
2023/09/26 06:37:51;;;;;;;16.58;9.20;;;8.80;99.90;;;;;;4890548;29;20040;-68
2023/09/26 06:40:23;;;;;;;15.55;8.55;;;8.80;99.90;;;;;;4881512;29;20169;-70
2023/09/26 06:42:56;;;;;;;26.48;10.05;;;8.80;99.90;;;;;;4877780;29;20053;-68
2023/09/26 06:45:31;;;;;;;;;;;8.80;99.90;;;;;;4860573;29;20053;-68
2023/09/26 06:48:04;;;;;;;24.05;10.60;;;8.80;99.90;;;;;;4881103;29;19923;-68
2023/09/26 06:50:42;;;;;;;25.15;10.48;;;8.90;99.90;;;;;;4868842;29;20149;-68
2023/09/26 06:53:14;;;;;;;33.10;10.98;;;8.90;99.90;;;;;;4871030;29;20058;-68
2023/09/26 06:55:46;;;;;;;22.73;11.10;;;9.00;99.90;;;;;;4889553;29;20581;-68
2023/09/26 06:58:17;;;;;;;20.25;10.23;;;9.10;99.90;;;;;;4860735;29;20463;-68
2023/09/26 07:00:50;;;;;;;23.73;12.35;;;9.10;99.90;;;;;;4886433;29;20048;-70
2023/09/26 07:03:22;;;;;;;18.73;12.07;;;9.30;99.90;;;;;;4887202;29;20048;-67
2023/09/26 07:05:54;;;;;;;30.40;13.13;;;9.40;99.90;;;;;;4886623;29;20044;-66
2023/09/26 07:08:26;;;;;;;28.48;13.73;;;9.40;99.90;;;;;;4891299;29;20053;-67
2023/09/26 07:11:03;;;;;;;30.48;14.15;;;9.40;99.90;;;;;;4886552;29;20045;-69
2023/09/26 07:13:35;;;;;;;22.52;13.90;;;9.50;99.90;;;;;;4868391;29;20052;-69
2023/09/26 07:16:08;;;;;;;23.20;15.40;;;9.60;99.90;;;;;;4889590;29;20045;-68
2023/09/26 07:18:39;;;;;;;24.98;15.52;;;9.60;99.90;;;;;;4866638;29;20044;-68
2023/09/26 07:21:12;;;;;;;30.58;15.02;;;9.70;99.90;;;;;;4882048;29;20678;-68
2023/09/26 07:23:39;;;;;;;22.63;15.15;;;9.80;99.90;;;;;;4885098;29;20465;-68
2023/09/26 07:26:12;;;;;;;23.88;16.20;;;9.90;99.90;;;;;;4861159;29;20072;-68
2023/09/26 07:28:44;;;;;;;20.02;14.45;;;10.00;99.90;;;;;;4884319;29;20066;-68
2023/09/26 07:31:18;;;;;;;21.67;14.77;;;10.10;99.90;;;;;;4886789;29;20912;-68
2023/09/26 07:33:50;;;;;;;;;;;10.20;99.90;;;;;;4886589;29;20193;-68
2023/09/26 07:36:17;;;;;;;20.27;14.93;;;10.30;99.90;;;;;;4883164;29;19927;-68
2023/09/26 07:38:44;;;;;;;21.70;15.68;;;10.40;99.90;;;;;;4887785;29;20033;-67
2023/09/26 07:41:16;;;;;;;24.80;15.52;;;10.50;99.90;;;;;;4881555;29;20126;-68
2023/09/26 07:43:48;;;;;;;19.00;14.77;;;10.60;99.90;;;;;;4864531;29;20068;-68
2023/09/26 07:46:15;;;;;;;23.20;16.73;;;10.70;99.90;;;;;;4887633;29;20048;-68
2023/09/26 07:48:42;;;;;;;22.33;16.05;;;10.80;99.90;;;;;;4885112;29;20051;-67
2023/09/26 07:51:10;;;;;;;22.17;16.38;;;10.80;99.90;;;;;;4882144;29;20052;-68
2023/09/26 07:53:42;;;;;;;23.77;16.70;;;10.90;99.90;;;;;;4878272;29;20069;-67
2023/09/26 07:56:14;;;;;;;25.42;16.80;;;11.00;99.90;;;;;;4874516;29;20692;-68
2023/09/26 07:58:46;;;;;;;24.55;16.40;;;11.00;99.90;;;;;;4876079;29;20056;-68
2023/09/26 08:01:13;;;;;;;27.67;16.55;;;11.10;99.90;;;;;;4888069;29;20138;-68
2023/09/26 08:03:41;;;;;;;33.00;17.35;;;11.10;99.90;;;;;;4888404;29;20131;-68
2023/09/26 08:06:08;;;;;;;26.65;17.90;;;11.10;99.90;;;;;;4883415;29;20064;-68
2023/09/26 08:08:41;;;;;;;24.50;16.88;;;11.20;99.90;;;;;;4872706;29;20424;-68
2023/09/26 08:11:12;;;;;;;29.15;17.67;;;11.20;99.90;;;;;;4879284;29;20048;-68
2023/09/26 08:13:45;;;;;;;30.00;16.60;;;11.20;99.90;;;;;;4881154;29;20041;-67
2023/09/26 08:16:16;;;;;;;31.30;17.10;;;11.20;99.90;;;;;;4864435;29;20060;-69
2023/09/26 08:18:43;;;;;;;25.88;16.70;;;11.20;99.90;;;;;;4883698;29;20075;-68
2023/09/26 08:21:15;;;;;;;22.00;16.75;;;11.30;99.90;;;;;;4883401;29;20041;-67
2023/09/26 08:23:42;;;;;;;28.33;17.35;;;11.40;99.90;;;;;;4870338;29;20140;-67
2023/09/26 08:26:11;;;;;;;30.95;18.35;;;11.40;99.90;;;;;;4867961;29;20049;-67
2023/09/26 08:28:39;;;;;;;27.98;18.50;;;11.40;99.90;;;;;;4887194;29;20047;-68
2023/09/26 08:31:15;;;;;;;29.23;19.45;;;11.50;99.90;;;;;;4870616;29;20634;-68
2023/09/26 08:33:49;;;;;;;22.10;17.80;;;11.60;99.90;;;;;;4887368;29;20116;-68
2023/09/26 08:36:18;;;;;;;21.55;17.83;;;11.70;99.90;;;;;;4867107;29;20055;-68
2023/09/26 08:38:53;;;;;;;22.50;17.27;;;11.90;99.90;;;;;;4888577;29;20044;-68
2023/09/26 08:41:20;;;;;;;21.73;16.75;;;12.10;99.90;;;;;;4874084;29;20052;-67
2023/09/26 08:43:52;;;;;;;22.13;17.38;;;12.20;99.90;;;;;;4874755;29;20072;-68
2023/09/26 08:46:24;;;;;;;26.48;19.35;;;12.30;99.90;;;;;;4894130;29;20053;-67
2023/09/26 08:48:57;;;;;;;28.63;21.25;;;12.40;99.90;;;;;;4865369;29;20068;-68
2023/09/26 08:51:29;;;;;;;39.78;29.85;;;12.60;99.90;;;;;;4877532;29;20057;-69
2023/09/26 08:54:01;;;;;;;35.45;24.83;;;12.60;99.90;;;;;;4868712;29;20143;-67
2023/09/26 08:56:33;;;;;;;30.52;22.05;;;12.80;99.90;;;;;;4875269;29;20065;-67
2023/09/26 08:59:06;;;;;;;26.90;20.30;;;12.90;99.90;;;;;;4890839;29;20068;-69
2023/09/26 09:01:38;;;;;;;29.10;21.35;;;13.00;99.90;;;;;;4874922;29;20044;-69
2023/09/26 09:04:06;;;;;;;28.75;20.77;;;13.20;99.90;;;;;;4888832;29;20052;-66
2023/09/26 09:06:33;;;;;;;28.85;20.60;;;13.30;99.90;;;;;;4885406;29;20226;-69
2023/09/26 09:09:13;;;;;;;27.95;21.48;;;13.40;99.90;;;;;;4869008;29;20440;-67
2023/09/26 09:11:46;;;;;;;25.17;20.67;;;13.50;99.90;;;;;;4875937;29;20100;-67
2023/09/26 09:14:33;;;;;;;29.88;21.90;;;13.70;99.90;;;;;;4888444;29;20042;-68
2023/09/26 09:17:05;;;;;;;27.02;21.85;;;13.70;99.90;;;;;;4890303;29;20045;-69
2023/09/26 09:19:48;;;;;;;28.65;22.33;;;13.80;99.90;;;;;;4880053;29;20605;-69
2023/09/26 09:22:17;;;;;;;32.20;24.77;;;13.90;99.90;;;;;;4867133;29;20044;-68
2023/09/26 09:24:51;;;;;;;34.95;25.20;;;14.00;99.90;;;;;;4883797;29;20045;-68
2023/09/26 09:27:43;;;;;;;33.60;25.58;;;14.10;99.90;;;;;;4881447;29;20049;-69
2023/09/26 09:30:16;;;;;;;31.55;24.25;;;14.20;99.90;;;;;;4869474;29;20574;-68
2023/09/26 09:32:48;;;;;;;33.65;24.88;;;14.30;99.90;;;;;;4888151;29;20055;-68
2023/09/26 09:35:20;;;;;;;34.92;26.13;;;14.50;99.90;;;;;;4891125;29;20052;-70
2023/09/26 09:37:49;;;;;;;38.53;28.73;;;14.60;99.90;;;;;;4876649;29;20043;-68
2023/09/26 09:40:20;;;;;;;39.00;29.17;;;14.70;99.90;;;;;;4886400;29;20076;-70
2023/09/26 09:42:52;;;;;;;43.13;29.55;;;14.80;99.90;;;;;;4886181;29;20057;-69
2023/09/26 09:45:28;;;;;;;38.67;28.20;;;15.00;99.90;;;;;;4893550;29;20578;-68
2023/09/26 09:47:57;;;;;;;38.92;27.98;;;15.20;99.90;;;;;;4887342;29;20053;-68
2023/09/26 09:50:31;;;;;;;38.53;27.65;;;15.40;99.90;;;;;;4879780;29;20049;-68
2023/09/26 09:53:04;;;;;;;38.55;27.85;;;15.50;99.90;;;;;;4884894;29;20128;-69
2023/09/26 09:55:39;;;;;;;34.40;26.40;;;15.60;99.90;;;;;;4882064;29;20101;-68
2023/09/26 09:58:11;;;;;;;36.47;27.92;;;15.70;99.90;;;;;;4874341;29;20068;-68
2023/09/26 10:00:40;;;;;;;33.47;25.67;;;15.80;99.90;;;;;;4882835;29;20521;-69
2023/09/26 10:03:12;;;;;;;35.83;25.63;;;16.00;99.90;;;;;;4882637;29;20403;-69
2023/09/26 10:05:48;;;;;;;32.78;24.95;;;16.10;99.90;;;;;;4884775;29;20048;-67
2023/09/26 10:08:16;;;;;;;30.50;23.65;;;16.20;99.90;;;;;;4887270;29;20136;-69
2023/09/26 10:10:47;;;;;;;33.15;22.58;;;16.30;99.90;;;;;;4888426;29;20045;-68
2023/09/26 10:13:20;;;;;;;28.35;22.52;;;16.50;99.90;;;;;;4885367;29;20040;-68
2023/09/26 10:16:11;;;;;;;25.92;20.02;;;16.60;99.90;;;;;;4889189;29;20037;-68
2023/09/26 10:18:40;;;;;;;25.40;20.77;;;16.70;99.90;;;;;;4870804;29;20044;-69
2023/09/26 10:21:19;;;;;;;;;;;16.80;99.90;;;;;;4862438;29;20733;-67
2023/09/26 10:24:17;;;;;;;24.85;19.85;;;16.90;99.90;;;;;;4891030;29;19928;-67
2023/09/26 10:26:50;;;;;;;23.65;18.88;;;17.10;99.90;;;;;;4873823;29;20061;-68
2023/09/26 10:29:28;;;;;;;24.92;18.75;;;17.30;99.90;;;;;;4886339;29;20045;-69
2023/09/26 10:32:04;;;;;;;24.15;18.58;;;17.40;99.90;;;;;;4881499;29;20056;-68
2023/09/26 10:34:37;;;;;;;20.55;16.98;;;17.50;99.90;;;;;;4885442;29;20118;-69
2023/09/26 10:37:15;;;;;;;18.77;16.50;;;17.60;99.90;;;;;;4870984;29;20044;-70
2023/09/26 10:39:47;;;;;;;21.27;17.58;;;17.80;99.90;;;;;;4875791;29;20713;-69
2023/09/26 10:42:22;;;;;;;20.02;16.27;;;17.80;99.90;;;;;;4873897;29;20055;-69
2023/09/26 10:44:55;;;;;;;22.25;18.08;;;18.00;99.90;;;;;;4885773;29;20041;-69
2023/09/26 10:47:23;;;;;;;20.02;17.85;;;18.00;99.90;;;;;;4885769;29;20576;-67
2023/09/26 10:49:50;;;;;;;19.42;17.33;;;18.00;99.90;;;;;;4881320;29;20136;-69
2023/09/26 10:52:17;;;;;;;21.60;15.88;;;18.10;99.90;;;;;;4865315;29;20839;-70
2023/09/26 10:54:49;;;;;;;18.35;15.95;;;18.20;99.90;;;;;;4883339;29;20083;-69
2023/09/26 10:57:18;;;;;;;18.00;15.93;;;18.30;99.90;;;;;;4887660;29;20044;-67
2023/09/26 10:59:50;;;;;;;20.23;15.93;;;18.40;99.90;;;;;;4860346;29;20041;-69
2023/09/26 11:02:17;;;;;;;22.33;14.60;;;18.50;99.90;;;;;;4883239;29;20049;-68
2023/09/26 11:04:50;;;;;;;15.88;14.05;;;18.60;99.90;;;;;;4874521;29;20044;-69
2023/09/26 11:07:22;;;;;;;18.85;16.00;;;18.60;99.90;;;;;;4871693;29;20544;-69
2023/09/26 11:09:54;;;;;;;17.75;14.50;;;18.70;99.90;;;;;;4888245;29;20041;-69
2023/09/26 11:12:26;;;;;;;22.38;13.38;;;18.60;99.90;;;;;;4860273;29;20055;-69
2023/09/26 11:15:03;;;;;;;15.32;13.82;;;18.80;99.90;;;;;;4865944;29;20049;-69
2023/09/26 11:17:37;;;;;;;14.80;13.13;;;18.90;99.90;;;;;;4860583;29;20100;-69
2023/09/26 11:20:11;;;;;;;16.42;13.48;;;19.00;99.90;;;;;;4866342;29;20048;-67
2023/09/26 11:22:51;;;;;;;17.30;13.90;;;19.10;99.90;;;;;;4873842;29;20100;-68
2023/09/26 11:25:22;;;;;;;14.57;12.52;;;19.20;99.90;;;;;;4886763;29;20060;-68
2023/09/26 11:27:54;;;;;;;16.75;13.27;;;19.20;99.90;;;;;;4897204;29;20044;-68
2023/09/26 11:30:22;;;;;;;14.93;13.43;;;19.30;99.90;;;;;;4896240;29;20498;-67
2023/09/26 11:32:54;;;;;;;14.40;12.90;;;19.30;99.90;;;;;;4898577;29;20060;-69
2023/09/26 11:35:26;;;;;;;16.02;12.82;;;19.50;99.90;;;;;;4896284;29;20787;-69
2023/09/26 11:37:54;;;;;;;13.57;11.70;;;19.60;99.90;;;;;;4888007;29;20417;-69
2023/09/26 11:40:26;;;;;;;13.38;11.98;;;19.70;99.90;;;;;;4885448;29;20041;-69
2023/09/26 11:42:57;;;;;;;15.90;12.90;;;19.80;99.90;;;;;;4883077;29;20055;-70
2023/09/26 11:45:26;;;;;;;14.23;11.93;;;19.90;99.90;;;;;;4873957;29;20840;-68
2023/09/26 11:48:01;;;;;;;14.43;12.90;;;19.90;99.90;;;;;;4845121;29;1340986;-68
2023/09/26 11:50:35;;;;;;;13.02;11.68;;;20.00;99.90;;;;;;4864757;29;20690;-69
2023/09/26 11:53:08;;;;;;;14.77;12.35;;;20.00;99.90;;;;;;4877209;29;20048;-69
2023/09/26 11:55:42;;;;;;;14.13;11.95;;;20.10;99.90;;;;;;4885067;29;20120;-69
2023/09/26 11:58:14;;;;;;;14.48;12.73;;;20.20;99.90;;;;;;4872264;29;20131;-68
2023/09/26 12:00:46;;;;;;;13.98;12.48;;;20.30;99.90;;;;;;4888187;29;20056;-68
2023/09/26 12:03:18;;;;;;;12.70;11.40;;;20.30;99.90;;;;;;4881416;29;20041;-68
2023/09/26 12:05:50;;;;;;;11.55;10.35;;;20.40;99.90;;;;;;4868105;29;20045;-70
2023/09/26 12:08:22;;;;;;;14.32;11.63;;;20.40;99.90;;;;;;4867521;29;20052;-68
2023/09/26 12:10:49;;;;;;;14.25;11.60;;;20.50;99.90;;;;;;4886722;29;20068;-68
2023/09/26 12:13:15;;;;;;;13.77;12.43;;;20.50;99.90;;;;;;4887504;29;20487;-68
2023/09/26 12:15:47;;;;;;;14.25;11.98;;;20.50;99.90;;;;;;4889706;29;20037;-68
2023/09/26 12:18:19;;;;;;;12.82;11.50;;;20.50;99.90;;;;;;4889354;29;20049;-67
2023/09/26 12:20:55;;;;;;;13.30;11.95;;;20.60;99.90;;;;;;4891048;29;20544;-70
2023/09/26 12:23:23;;;;;;;15.45;10.38;;;20.60;99.90;;;;;;4891187;29;20041;-67
2023/09/26 12:25:55;;;;;;;12.70;11.10;;;20.60;99.90;;;;;;4892134;29;20048;-68
2023/09/26 12:28:27;;;;;;;13.55;12.15;;;20.70;99.90;;;;;;4891981;29;20048;-69
2023/09/26 12:30:55;;;;;;;12.25;11.05;;;20.80;99.90;;;;;;4889395;29;20040;-67
2023/09/26 12:33:22;;;;;;;15.48;11.88;;;20.80;99.90;;;;;;4885013;29;20052;-69
2023/09/26 12:35:56;;;;;;;13.27;11.32;;;20.80;99.90;;;;;;4873030;29;20413;-69
2023/09/26 12:38:22;;;;;;;12.88;11.50;;;20.80;99.90;;;;;;4874434;29;20140;-67
2023/09/26 12:40:55;;;;;;;13.07;11.52;;;20.90;99.90;;;;;;4891137;29;20132;-69
2023/09/26 12:43:26;;;;;;;11.88;10.30;;;20.90;99.90;;;;;;4865803;29;20488;-68
2023/09/26 12:45:58;;;;;;;12.05;10.70;;;20.90;99.90;;;;;;4892068;29;20049;-70
2023/09/26 12:48:30;;;;;;;14.30;11.23;;;20.90;99.90;;;;;;4888221;29;20040;-68
2023/09/26 12:50:57;;;;;;;11.93;10.77;;;20.90;99.90;;;;;;4893405;29;20059;-68
2023/09/26 12:53:24;;;;;;;13.73;11.80;;;20.90;99.90;;;;;;4883729;29;20546;-68
2023/09/26 12:55:52;;;;;;;14.27;12.30;;;21.00;99.90;;;;;;4884315;29;20398;-68
2023/09/26 12:58:24;;;;;;;12.52;11.27;;;21.10;99.90;;;;;;4882941;29;20055;-69
2023/09/26 13:00:51;;;;;;;13.45;12.02;;;21.20;99.90;;;;;;4868902;29;20426;-69
2023/09/26 13:03:18;;;;;;;12.27;10.98;;;21.20;99.90;;;;;;4882921;29;20048;-68